Terminal Aerodrome Forecast
Issued by NWS

Home | Current Version | Previous Version | Text Only | Print | Product List | Glossary On
Versions: 1 2 3 4 5 6 7 8 9 10 11 12 13 14 15 16 17
000
FTUS41 KCAR 011728 AAE
TAFBHB
TAF AMD
KBHB 011728Z 0117/0218 20014G21KT 1/4SM -RA FG OVC003
      TEMPO 0118/0122 2SM -RA BR OVC004
     FM021100 24012G24KT 1SM -RA BR BKN003
     FM021400 25016G28KT P6SM BKN250=

USA.gov is the U.S. government's official web portal to all federal, state and local government web resources and services.